Time;durP1;ratioP1;P1;durP2;ratioP2;P2;SDS_P1;SDS_P2;PMS_P1;PMS_P2;Temp;Humidity;BMP_temperature;BMP_pressure;BME280_temperature;BME280_humidity;BME280_pressure;Samples;Min_cycle;Max_cycle;Signal;HPM_P1;HPM_P2
2023/03/19 00:00:28;;;;;;;;;;;;;;;11.61;35.42;99286.84;5092242;28;19916;-72
2023/03/19 00:02:54;;;;;;;;;;;;;;;11.60;35.84;99270.34;5075213;28;19916;-73
2023/03/19 00:05:19;;;;;;;;;;;;;;;11.62;35.44;99272.84;5092236;28;20248;-72
2023/03/19 00:07:44;;;;;;;;;;;;;;;11.61;35.60;99276.41;5091996;28;19916;-72
2023/03/19 00:10:10;;;;;;;;;;;;;;;11.58;35.68;99277.47;5092143;28;19923;-72
2023/03/19 00:12:35;;;;;;;;;;;;;;;11.56;35.90;99282.00;5093442;28;19916;-72
2023/03/19 00:15:01;;;;;;;;;;;;;;;11.55;35.69;99267.22;5092026;28;19916;-72
2023/03/19 00:17:26;;;;;;;;;;;;;;;11.52;35.73;99260.44;5075131;28;19923;-72
2023/03/19 00:19:51;;;;;;;;;;;;;;;11.51;35.41;99261.41;5093042;28;19969;-72
2023/03/19 00:22:17;;;;;;;;;;;;;;;11.50;35.50;99261.50;5091950;28;20014;-72
2023/03/19 00:24:43;;;;;;;;;;;;;;;11.47;35.64;99270.41;5091751;28;19920;-72
2023/03/19 00:27:08;;;;;;;;;;;;;;;11.46;35.85;99273.94;5093410;28;20319;-72
2023/03/19 00:29:34;;;;;;;;;;;;;;;11.48;35.51;99274.69;5091762;28;19916;-72
2023/03/19 00:32:00;;;;;;;;;;;;;;;11.48;35.70;99282.53;5074980;28;19923;-73
2023/03/19 00:34:25;;;;;;;;;;;;;;;11.50;35.61;99279.81;5091947;28;20360;-73
2023/03/19 00:36:51;;;;;;;;;;;;;;;11.48;35.88;99279.06;5091307;28;19939;-73
2023/03/19 00:39:16;;;;;;;;;;;;;;;11.50;35.99;99279.81;5074972;28;19923;-73
2023/03/19 00:41:49;;;;;;;;;;;;;;;11.51;35.82;99278.84;5092205;28;19923;-73
2023/03/19 00:44:14;;;;;;;;;;;;;;;11.50;36.23;99279.81;5091896;28;20363;-73
2023/03/19 00:46:40;;;;;;;;;;;;;;;11.52;36.09;99275.28;5091714;28;19946;-73
2023/03/19 00:49:05;;;;;;;;;;;;;;;11.52;36.10;99277.91;5074537;28;19947;-73
2023/03/19 00:51:30;;;;;;;;;;;;;;;11.52;36.51;99272.69;5091472;28;19926;-73
2023/03/19 00:53:56;;;;;;;;;;;;;;;11.51;36.67;99281.47;5091436;28;19970;-73
2023/03/19 00:56:21;;;;;;;;;;;;;;;11.52;36.67;99283.16;5091296;28;19916;-72
2023/03/19 00:58:46;;;;;;;;;;;;;;;11.52;36.68;99277.91;5074418;28;19920;-72
2023/03/19 01:01:12;;;;;;;;;;;;;;;11.53;36.61;99279.59;5091350;28;19934;-72
2023/03/19 01:03:38;;;;;;;;;;;;;;;11.55;37.00;99285.53;5090852;28;19923;-72
2023/03/19 01:06:03;;;;;;;;;;;;;;;11.56;36.97;99285.44;5091331;28;19917;-72
2023/03/19 01:08:29;;;;;;;;;;;;;;;11.56;37.01;99279.38;5074394;28;19916;-72
2023/03/19 01:10:54;;;;;;;;;;;;;;;11.57;37.60;99281.03;5091109;28;19922;-73
2023/03/19 01:13:19;;;;;;;;;;;;;;;11.59;37.41;99284.34;5091066;28;19922;-72
2023/03/19 01:15:45;;;;;;;;;;;;;;;11.59;37.50;99290.44;5091186;28;19916;-73
2023/03/19 01:18:10;;;;;;;;;;;;;;;11.59;37.77;99279.13;5091540;28;20019;-73
2023/03/19 01:20:36;;;;;;;;;;;;;;;11.61;37.67;99276.41;5093565;28;19920;-73
2023/03/19 01:23:02;;;;;;;;;;;;;;;11.60;37.79;99275.56;5095324;28;19928;-72
2023/03/19 01:25:27;;;;;;;;;;;;;;;11.56;37.89;99274.16;5095213;28;19916;-72
2023/03/19 01:27:52;;;;;;;;;;;;;;;11.59;37.93;99272.13;5077729;28;20015;-73
2023/03/19 01:30:18;;;;;;;;;;;;;;;11.58;38.10;99270.47;5095689;28;19996;-72
2023/03/19 01:32:43;;;;;;;;;;;;;;;11.56;38.28;99268.91;5095302;28;20295;-72
2023/03/19 01:35:08;;;;;;;;;;;;;;;11.54;38.30;99269.03;5096234;28;20006;-73
2023/03/19 01:37:34;;;;;;;;;;;;;;;11.53;38.40;99261.28;5094874;28;19916;-73
2023/03/19 01:39:59;;;;;;;;;;;;;;;11.53;38.47;99258.69;5077980;28;19923;-73
2023/03/19 01:42:25;;;;;;;;;;;;;;;11.51;38.75;99265.78;5096129;28;19916;-73
2023/03/19 01:44:50;;;;;;;;;;;;;;;11.54;38.58;99262.94;5094447;28;19916;-73
2023/03/19 01:47:24;;;;;;;;;;;;;;;11.53;38.75;99256.06;5094904;28;19956;-72
2023/03/19 01:49:51;;;;;;;;;;;;;;;11.53;38.72;99256.88;5078158;28;19939;-74
2023/03/19 01:52:17;;;;;;;;;;;;;;;11.53;38.89;99254.28;5094837;28;19920;-72
2023/03/19 01:54:42;;;;;;;;;;;;;;;11.53;38.85;99262.13;5094692;28;20356;-72
2023/03/19 01:57:08;;;;;;;;;;;;;;;11.52;38.97;99264.84;5095690;28;20349;-72
2023/03/19 01:59:35;;;;;;;;;;;;;;;11.51;39.44;99268.38;5095029;28;19973;-72
2023/03/19 02:02:16;;;;;;;;;;;;;;;11.52;38.97;99265.66;5077476;28;19922;-72
2023/03/19 02:04:42;;;;;;;;;;;;;;;11.52;38.97;99265.66;5094470;28;20391;-72
2023/03/19 02:07:07;;;;;;;;;;;;;;;11.53;39.38;99272.56;5094532;28;19916;-72
2023/03/19 02:09:33;;;;;;;;;;;;;;;11.47;39.25;99259.13;5077359;28;19948;-73
2023/03/19 02:11:58;;;;;;;;;;;;;;;11.47;39.63;99264.34;5094349;28;19923;-73
2023/03/19 02:14:23;;;;;;;;;;;;;;;11.45;39.30;99260.97;5094898;28;19916;-73
2023/03/19 02:16:49;;;;;;;;;;;;;;;11.46;39.44;99263.47;5078007;28;19916;-72
2023/03/19 02:19:16;;;;;;;;;;;;;;;11.47;39.46;99266.97;5095641;28;19916;-73
2023/03/19 02:21:41;;;;;;;;;;;;;;;11.48;39.59;99264.22;5077771;28;19924;-73
2023/03/19 02:24:20;;;;;;;;;;;;;;;11.50;39.34;99269.34;5094413;28;19939;-73
2023/03/19 02:26:45;;;;;;;;;;;;;;;11.49;39.67;99265.06;5094462;28;20403;-72
2023/03/19 02:29:11;;;;;;;;;;;;;;;11.49;39.86;99268.50;5094366;28;19924;-72
2023/03/19 02:31:36;;;;;;;;;;;;;;;11.49;39.96;99260.66;5077272;28;20375;-72
2023/03/19 02:34:02;;;;;;;;;;;;;;;11.50;39.84;99264.13;5094143;28;19924;-72
2023/03/19 02:36:30;;;;;;;;;;;;;;;11.51;40.16;99258.78;5094296;28;19917;-73
2023/03/19 02:38:55;;;;;;;;;;;;;;;11.51;39.87;99264.00;5094011;28;19920;-72
2023/03/19 02:41:21;;;;;;;;;;;;;;;11.52;40.13;99259.59;5078082;28;20381;-72
2023/03/19 02:43:46;;;;;;;;;;;;;;;11.53;40.29;99262.13;5077617;28;19990;-72
2023/03/19 02:46:11;;;;;;;;;;;;;;;11.54;40.20;99257.72;5093509;28;19963;-72
2023/03/19 02:48:37;;;;;;;;;;;;;;;11.56;40.31;99268.91;5093507;28;19916;-72
2023/03/19 02:51:03;;;;;;;;;;;;;;;11.55;40.31;99262.00;5093855;28;19920;-72
2023/03/19 02:53:28;;;;;;;;;;;;;;;11.56;40.39;99269.75;5094954;28;19973;-72
2023/03/19 02:55:53;;;;;;;;;;;;;;;11.56;40.45;99272.34;5077523;28;19916;-72
2023/03/19 02:58:18;;;;;;;;;;;;;;;11.59;40.44;99284.34;5094826;28;19951;-72
2023/03/19 03:00:44;;;;;;;;;;;;;;;11.59;40.52;99284.34;5093616;28;19922;-72
2023/03/19 03:03:09;;;;;;;;;;;;;;;11.58;40.58;99286.16;5076774;28;20299;-72
2023/03/19 03:05:35;;;;;;;;;;;;;;;11.59;40.57;99284.34;5093222;28;20000;-72
2023/03/19 03:08:00;;;;;;;;;;;;;;;11.61;40.51;99292.09;5093590;28;19976;-72
2023/03/19 03:10:25;;;;;;;;;;;;;;;11.62;40.63;99288.53;5094740;28;19922;-72
2023/03/19 03:12:51;;;;;;;;;;;;;;;11.62;40.64;99289.38;5076291;28;19954;-73
2023/03/19 03:15:16;;;;;;;;;;;;;;;11.64;40.68;99291.88;5093436;28;19947;-73
2023/03/19 03:17:42;;;;;;;;;;;;;;;11.62;40.66;99286.75;5093957;28;20348;-73
2023/03/19 03:20:09;;;;;;;;;;;;;;;11.63;40.59;99298.88;5093295;28;20375;-73
2023/03/19 03:22:34;;;;;;;;;;;;;;;11.62;40.80;99299.00;5093253;28;20373;-72
2023/03/19 03:25:00;;;;;;;;;;;;;;;11.63;40.50;99301.50;5093309;28;19923;-72
2023/03/19 03:27:25;;;;;;;;;;;;;;;11.61;40.65;99303.41;5076238;28;19981;-72
2023/03/19 03:29:51;;;;;;;;;;;;;;;11.59;40.70;99311.34;5076192;28;19916;-72
2023/03/19 03:32:16;;;;;;;;;;;;;;;11.60;40.82;99314.81;5093295;28;20402;-72
2023/03/19 03:34:42;;;;;;;;;;;;;;;11.58;40.63;99314.09;5094140;28;19923;-72
2023/03/19 03:37:08;;;;;;;;;;;;;;;11.60;40.43;99317.41;5093059;28;19923;-72
2023/03/19 03:39:33;;;;;;;;;;;;;;;11.59;40.69;99310.50;5094232;28;20371;-72
2023/03/19 03:41:58;;;;;;;;;;;;;;;11.57;40.44;99312.41;5093928;28;19923;-72
2023/03/19 03:44:24;;;;;;;;;;;;;;;11.57;40.53;99315.00;5092190;28;20296;-72
2023/03/19 03:46:49;;;;;;;;;;;;;;;11.56;40.44;99316.81;5094155;28;19916;-72
2023/03/19 03:49:14;;;;;;;;;;;;;;;11.56;40.54;99321.22;5093961;28;19920;-72
2023/03/19 03:51:40;;;;;;;;;;;;;;;11.53;40.54;99324.03;5093876;28;19974;-72
2023/03/19 03:54:05;;;;;;;;;;;;;;;11.54;40.67;99321.31;5075679;28;19920;-72
2023/03/19 03:56:32;;;;;;;;;;;;;;;11.54;40.56;99330.91;5092858;28;19927;-74
2023/03/19 03:58:57;;;;;;;;;;;;;;;11.53;40.38;99331.88;5076113;28;19923;-74
2023/03/19 04:01:22;;;;;;;;;;;;;;;11.52;40.43;99335.44;5092703;28;19920;-71
2023/03/19 04:03:48;;;;;;;;;;;;;;;11.52;40.35;99338.03;5093940;28;19939;-72
2023/03/19 04:06:17;;;;;;;;;;;;;;;11.50;40.33;99334.72;5075587;28;20385;-72
2023/03/19 04:08:42;;;;;;;;;;;;;;;11.49;40.41;99333.84;5093017;28;19923;-72
2023/03/19 04:11:07;;;;;;;;;;;;;;;11.49;40.32;99325.19;5092453;28;19916;-72
2023/03/19 04:13:35;;;;;;;;;;;;;;;11.46;40.41;99328.84;5093398;28;20347;-73
2023/03/19 04:16:02;;;;;;;;;;;;;;;11.47;40.47;99325.28;5075692;28;20341;-73
2023/03/19 04:18:27;;;;;;;;;;;;;;;11.46;40.46;99335.84;5075238;28;20302;-72
2023/03/19 04:20:53;;;;;;;;;;;;;;;11.45;40.38;99336.78;5093220;28;20011;-72
2023/03/19 04:23:18;;;;;;;;;;;;;;;11.43;40.50;99336.06;5092221;28;19920;-72
2023/03/19 04:25:43;;;;;;;;;;;;;;;11.41;40.48;99337.00;5092074;28;19916;-72
2023/03/19 04:28:09;;;;;;;;;;;;;;;11.41;40.48;99331.78;5092006;28;20375;-72
2023/03/19 04:30:34;;;;;;;;;;;;;;;11.41;40.51;99336.19;5092094;28;19916;-72
2023/03/19 04:32:59;;;;;;;;;;;;;;;11.39;40.74;99338.91;5074954;28;19916;-73
2023/03/19 04:35:25;;;;;;;;;;;;;;;11.38;40.51;99345.06;5093137;28;19916;-72
2023/03/19 04:37:50;;;;;;;;;;;;;;;11.41;40.55;99341.41;5092913;28;19916;-72
2023/03/19 04:40:16;;;;;;;;;;;;;;;11.41;40.55;99342.22;5091974;28;20010;-73
2023/03/19 04:42:43;;;;;;;;;;;;;;;11.43;40.33;99341.31;5092202;28;19923;-72
2023/03/19 04:45:09;;;;;;;;;;;;;;;11.46;40.50;99341.09;5091899;28;19923;-73
2023/03/19 04:47:34;;;;;;;;;;;;;;;11.48;40.79;99340.06;5074889;28;19916;-73
2023/03/19 04:49:59;;;;;;;;;;;;;;;11.52;40.66;99340.66;5091698;28;19999;-73
2023/03/19 04:52:25;;;;;;;;;;;;;;;11.56;40.32;99336.91;5092971;28;20011;-72
2023/03/19 04:54:50;;;;;;;;;;;;;;;11.83;40.29;99343.69;5073897;28;19917;-73
2023/03/19 04:57:16;;;;;;;;;;;;;;;12.93;38.52;99342.56;5092611;28;19920;-73
2023/03/19 04:59:41;;;;;;;;;;;;;;;12.98;38.14;99347.47;5092868;28;20467;-73
2023/03/19 05:02:07;;;;;;;;;;;;;;;12.53;38.31;99360.47;5091713;28;19923;-73
2023/03/19 05:04:32;;;;;;;;;;;;;;;12.23;39.39;99354.75;5092779;28;20299;-74
2023/03/19 05:06:57;;;;;;;;;;;;;;;12.52;38.59;99357.00;5093198;28;20329;-73
2023/03/19 05:09:23;;;;;;;;;;;;;;;12.73;38.38;99351.97;5092895;28;20406;-73
2023/03/19 05:11:48;;;;;;;;;;;;;;;12.65;38.51;99364.78;5074962;28;19967;-73
2023/03/19 05:14:13;;;;;;;;;;;;;;;12.74;38.66;99360.66;5074393;28;20018;-73
2023/03/19 05:16:39;;;;;;;;;;;;;;;12.82;38.20;99368.75;5074482;28;19916;-73
2023/03/19 05:19:04;;;;;;;;;;;;;;;14.06;36.34;99365.28;5092610;28;20442;-73
2023/03/19 05:21:29;;;;;;;;;;;;;;;15.16;34.57;99363.22;5091365;28;20303;-73
2023/03/19 05:23:56;;;;;;;;;;;;;;;15.46;34.06;99369.41;5074514;28;19928;-72
2023/03/19 05:26:21;;;;;;;;;;;;;;;16.88;31.74;99361.25;5092581;28;19923;-72
2023/03/19 05:28:46;;;;;;;;;;;;;;;17.89;30.04;99366.72;5091245;28;19928;-72
2023/03/19 05:31:12;;;;;;;;;;;;;;;18.06;29.76;99368.53;5074564;28;19916;-73
2023/03/19 05:33:37;;;;;;;;;;;;;;;18.46;29.23;99371.69;5074274;28;19916;-73
2023/03/19 05:36:02;;;;;;;;;;;;;;;19.51;27.59;99374.38;5092717;28;19976;-73
2023/03/19 05:38:27;;;;;;;;;;;;;;;20.29;26.65;99373.31;5091243;28;19916;-74
2023/03/19 05:40:53;;;;;;;;;;;;;;;20.90;25.76;99371.13;5091643;28;19926;-74
2023/03/19 05:43:18;;;;;;;;;;;;;;;21.46;24.76;99370.34;5091031;28;19916;-75
2023/03/19 05:45:48;;;;;;;;;;;;;;;22.00;24.31;99372.28;5073938;28;20371;-74
2023/03/19 05:48:13;;;;;;;;;;;;;;;22.48;23.22;99374.78;5091105;28;19920;-74
2023/03/19 05:50:41;;;;;;;;;;;;;;;22.89;23.06;99372.59;5092137;28;20288;-72
2023/03/19 05:53:06;;;;;;;;;;;;;;;23.33;22.24;99376.31;5092166;28;20352;-73
2023/03/19 05:55:31;;;;;;;;;;;;;;;23.70;22.08;99368.38;5091164;28;19973;-73
2023/03/19 05:57:57;;;;;;;;;;;;;;;24.02;21.72;99367.97;5073821;28;19916;-73
2023/03/19 06:00:22;;;;;;;;;;;;;;;24.30;21.46;99367.22;5074004;28;19955;-74
2023/03/19 06:02:47;;;;;;;;;;;;;;;24.65;21.07;99366.50;5090888;28;20389;-73
2023/03/19 06:05:13;;;;;;;;;;;;;;;24.95;20.56;99369.81;5074592;28;20445;-74
2023/03/19 06:07:38;;;;;;;;;;;;;;;25.23;20.30;99371.66;5094585;28;20015;-73
2023/03/19 06:10:03;;;;;;;;;;;;;;;25.54;20.04;99360.53;5096024;28;19920;-74
2023/03/19 06:12:29;;;;;;;;;;;;;;;25.78;19.51;99361.84;5063163;28;19921;-72
2023/03/19 06:14:55;;;;;;;;;;;;;;;26.05;19.41;99359.28;5054401;28;19920;-73
2023/03/19 06:17:21;;;;;;;;;;;;;;;26.25;19.27;99353.13;5037605;28;19924;-73
2023/03/19 06:19:46;;;;;;;;;;;;;;;26.46;18.88;99354.81;5054449;28;19921;-73
2023/03/19 06:22:11;;;;;;;;;;;;;;;26.70;18.76;99358.72;5055101;28;20364;-73
2023/03/19 06:24:37;;;;;;;;;;;;;;;26.92;18.56;99356.66;5055241;28;19990;-73
2023/03/19 06:27:02;;;;;;;;;;;;;;;27.18;18.36;99360.31;5054123;28;20332;-75
2023/03/19 06:29:27;;;;;;;;;;;;;;;27.47;18.02;99359.00;5055329;28;19917;-73
2023/03/19 06:31:53;;;;;;;;;;;;;;;27.58;18.13;99357.53;5037178;28;20311;-74
2023/03/19 06:34:18;;;;;;;;;;;;;;;27.88;17.35;99365.00;5037183;28;19923;-74
2023/03/19 06:36:43;;;;;;;;;;;;;;;28.00;17.09;99360.63;5054145;28;19916;-73
2023/03/19 06:39:09;;;;;;;;;;;;;;;28.13;17.14;99368.63;5054416;28;19917;-73
2023/03/19 06:41:34;;;;;;;;;;;;;;;28.23;17.02;99370.81;5055099;28;19921;-73
2023/03/19 06:44:00;;;;;;;;;;;;;;;28.38;17.11;99367.00;5037205;28;19916;-75
2023/03/19 06:46:25;;;;;;;;;;;;;;;28.50;16.56;99370.63;5037092;28;19916;-72
2023/03/19 06:48:50;;;;;;;;;;;;;;;28.66;16.42;99371.97;5054916;28;19956;-73
2023/03/19 06:51:16;;;;;;;;;;;;;;;28.81;16.48;99377.81;5053592;28;19917;-72
2023/03/19 06:53:41;;;;;;;;;;;;;;;28.94;16.39;99379.56;5053358;28;19960;-73
2023/03/19 06:56:06;;;;;;;;;;;;;;;28.92;16.12;99378.94;5053570;28;19917;-73
2023/03/19 06:58:32;;;;;;;;;;;;;;;29.11;16.26;99385.16;5053488;28;19988;-74
2023/03/19 07:00:57;;;;;;;;;;;;;;;29.24;16.42;99381.56;5053572;28;19916;-72
2023/03/19 07:03:22;;;;;;;;;;;;;;;29.38;15.85;99379.53;5053462;28;20402;-75
2023/03/19 07:05:51;;;;;;;;;;;;;;;29.57;15.83;99383.03;5036787;28;19917;-72
2023/03/19 07:08:16;;;;;;;;;;;;;;;29.66;16.11;99380.88;5053536;28;19924;-73
2023/03/19 07:10:43;;;;;;;;;;;;;;;29.84;16.00;99371.97;5053097;28;19917;-72
2023/03/19 07:13:08;;;;;;;;;;;;;;;29.89;15.91;99377.50;5052995;28;19953;-72
2023/03/19 07:15:35;;;;;;;;;;;;;;;29.91;15.88;99380.78;5054395;28;20005;-72
2023/03/19 07:18:00;;;;;;;;;;;;;;;30.06;15.96;99380.34;5053459;28;19923;-73
2023/03/19 07:20:25;;;;;;;;;;;;;;;30.25;15.06;99383.81;5054235;28;19920;-73
2023/03/19 07:22:51;;;;;;;;;;;;;;;30.30;15.33;99381.25;5053203;28;19921;-73
2023/03/19 07:25:16;;;;;;;;;;;;;;;30.49;15.32;99380.16;5052849;28;19924;-72
2023/03/19 07:27:41;;;;;;;;;;;;;;;30.70;15.23;99377.94;5036304;28;19964;-73
2023/03/19 07:30:07;;;;;;;;;;;;;;;30.97;15.50;99380.22;5054188;28;19920;-72
2023/03/19 07:32:33;;;;;;;;;;;;;;;31.29;14.93;99371.72;5052877;28;19916;-73
2023/03/19 07:34:58;;;;;;;;;;;;;;;31.60;14.76;99377.78;5036046;28;19924;-72
2023/03/19 07:37:23;;;;;;;;;;;;;;;31.89;14.80;99375.91;5036078;28;19924;-73
2023/03/19 07:39:49;;;;;;;;;;;;;;;31.95;14.48;99379.53;5052579;28;20011;-72
2023/03/19 07:42:15;;;;;;;;;;;;;;;32.05;14.44;99369.72;5052482;28;19916;-73
2023/03/19 07:44:40;;;;;;;;;;;;;;;32.15;14.41;99373.69;5035838;28;20004;-74
2023/03/19 07:47:06;;;;;;;;;;;;;;;31.89;14.69;99371.31;5053824;28;19916;-72
2023/03/19 07:49:31;;;;;;;;;;;;;;;31.84;14.82;99373.13;5035973;28;19926;-72
2023/03/19 07:51:56;;;;;;;;;;;;;;;31.90;14.73;99367.56;5052532;28;19917;-71
2023/03/19 07:54:22;;;;;;;;;;;;;;;31.91;14.88;99365.66;5052600;28;19917;-72
2023/03/19 07:56:47;;;;;;;;;;;;;;;32.08;14.92;99363.00;5053806;28;19916;-73
2023/03/19 07:59:13;;;;;;;;;;;;;;;31.98;14.58;99354.75;5035541;28;20019;-74
2023/03/19 08:01:38;;;;;;;;;;;;;;;32.06;14.82;99359.75;5053438;28;19921;-73
2023/03/19 08:04:03;;;;;;;;;;;;;;;32.13;14.71;99352.31;5035684;28;19944;-73
2023/03/19 08:06:29;;;;;;;;;;;;;;;32.16;14.60;99353.72;5053288;28;20376;-73
2023/03/19 08:08:54;;;;;;;;;;;;;;;32.15;14.55;99352.94;5052219;28;19917;-72
2023/03/19 08:11:19;;;;;;;;;;;;;;;32.23;14.62;99360.63;5053426;28;19924;-72
2023/03/19 08:13:44;;;;;;;;;;;;;;;32.31;14.35;99356.69;5053057;28;19916;-73
2023/03/19 08:16:10;;;;;;;;;;;;;;;32.19;14.46;99364.03;5035314;28;20403;-73
2023/03/19 08:18:35;;;;;;;;;;;;;;;32.36;14.13;99356.78;5052065;28;19917;-73
2023/03/19 08:21:01;;;;;;;;;;;;;;;32.28;14.59;99358.00;5053094;28;19928;-72
2023/03/19 08:23:26;;;;;;;;;;;;;;;32.24;14.48;99356.03;5035281;28;19921;-72
2023/03/19 08:25:52;;;;;;;;;;;;;;;32.42;14.54;99346.88;5035215;28;19998;-72
2023/03/19 08:28:17;;;;;;;;;;;;;;;32.52;14.53;99357.84;5051830;28;19916;-72
2023/03/19 08:30:43;;;;;;;;;;;;;;;32.56;14.30;99358.16;5052240;28;19920;-72
2023/03/19 08:33:08;;;;;;;;;;;;;;;32.59;14.40;99344.16;5034985;28;20296;-71
2023/03/19 08:35:34;;;;;;;;;;;;;;;32.59;14.48;99336.88;5051805;28;19917;-72
2023/03/19 08:37:59;;;;;;;;;;;;;;;32.48;14.14;99348.56;5052823;28;19916;-72
2023/03/19 08:40:24;;;;;;;;;;;;;;;32.26;14.21;99343.09;5051707;28;19917;-72
2023/03/19 08:42:50;;;;;;;;;;;;;;;32.08;14.72;99334.16;5035027;28;19967;-71
2023/03/19 08:45:15;;;;;;;;;;;;;;;32.04;15.30;99340.25;5051301;28;19971;-73
2023/03/19 08:47:41;;;;;;;;;;;;;;;32.01;14.95;99340.75;5053011;28;19917;-73
2023/03/19 08:50:06;;;;;;;;;;;;;;;32.04;15.06;99334.84;5035361;28;19924;-73
2023/03/19 08:52:32;;;;;;;;;;;;;;;32.04;14.97;99334.84;5051513;28;20391;-73
2023/03/19 08:54:57;;;;;;;;;;;;;;;31.99;14.85;99337.47;5051537;28;19923;-72
2023/03/19 08:57:22;;;;;;;;;;;;;;;32.05;15.22;99333.81;5052657;28;20031;-72
2023/03/19 08:59:48;;;;;;;;;;;;;;;32.00;15.19;99329.13;5051477;28;20350;-72
2023/03/19 09:02:13;;;;;;;;;;;;;;;32.06;15.45;99325.47;5034447;28;19928;-73
2023/03/19 09:04:42;;;;;;;;;;;;;;;31.98;15.55;99330.44;5051862;28;19917;-72
2023/03/19 09:07:07;;;;;;;;;;;;;;;31.76;15.48;99331.13;5052612;28;19971;-71
2023/03/19 09:09:32;;;;;;;;;;;;;;;31.59;15.39;99330.28;5034741;28;19991;-73
2023/03/19 09:11:58;;;;;;;;;;;;;;;31.31;15.57;99324.59;5034466;28;19924;-73
2023/03/19 09:14:23;;;;;;;;;;;;;;;31.47;15.37;99314.09;5051097;28;19921;-73
2023/03/19 09:16:48;;;;;;;;;;;;;;;31.43;15.16;99313.75;5051042;28;19924;-73
2023/03/19 09:19:13;;;;;;;;;;;;;;;31.45;15.49;99319.72;5051043;28;19917;-72
2023/03/19 09:21:39;;;;;;;;;;;;;;;31.50;15.39;99317.13;5051111;28;19925;-72
2023/03/19 09:24:04;;;;;;;;;;;;;;;31.50;14.94;99324.41;5034459;28;19948;-73
2023/03/19 09:26:30;;;;;;;;;;;;;;;31.34;15.48;99318.72;5051207;28;19953;-73
2023/03/19 09:28:55;;;;;;;;;;;;;;;31.41;15.55;99318.56;5034523;28;20402;-74
2023/03/19 09:31:20;;;;;;;;;;;;;;;31.28;15.44;99302.66;5034457;28;19917;-80
2023/03/19 09:33:46;;;;;;;;;;;;;;;31.03;15.65;99293.81;5051365;28;20000;-76
2023/03/19 09:36:11;;;;;;;;;;;;;;;30.85;16.13;99302.84;5034418;28;20377;-79
2023/03/19 09:38:36;;;;;;;;;;;;;;;30.65;15.61;99297.81;5052212;28;19916;-76
2023/03/19 09:41:09;;;;;;;;;;;;;;;30.56;16.45;99301.09;5035698;28;19916;-78
2023/03/19 09:43:50;;;;;;;;;;;;;;;30.58;16.07;99293.59;5055082;28;19928;-80
2023/03/19 09:46:17;;;;;;;;;;;;;;;30.53;16.22;99293.50;5056053;28;19917;-78
2023/03/19 09:48:47;;;;;;;;;;;;;;;30.13;16.71;99285.00;5054985;28;19925;-75
2023/03/19 09:51:14;;;;;;;;;;;;;;;30.20;16.54;99274.09;5055042;28;20403;-75
2023/03/19 09:53:49;;;;;;;;;;;;;;;29.98;16.65;99273.03;5038182;28;20445;-75
2023/03/19 09:56:18;;;;;;;;;;;;;;;29.98;16.71;99265.75;5054605;28;19917;-75
2023/03/19 09:58:43;;;;;;;;;;;;;;;29.88;16.58;99247.50;5038475;28;20389;-74
2023/03/19 10:01:16;;;;;;;;;;;;;;;29.01;16.52;99259.38;5037436;28;19917;-75
2023/03/19 10:04:00;;;;;;;;;;;;;;;28.81;16.93;99259.63;5055180;28;19924;-75
2023/03/19 10:06:32;;;;;;;;;;;;;;;28.58;17.51;99262.94;5055860;28;20011;-77
2023/03/19 10:08:57;;;;;;;;;;;;;;;28.78;17.91;99246.63;5054600;28;20315;-76
2023/03/19 10:11:32;;;;;;;;;;;;;;;28.96;18.03;99250.38;5054256;28;20012;-76
2023/03/19 10:14:09;;;;;;;;;;;;;;;28.97;17.77;99247.44;5054207;28;19966;-76
2023/03/19 10:16:35;;;;;;;;;;;;;;;28.78;17.87;99243.94;5055592;28;19917;-76
2023/03/19 10:19:01;;;;;;;;;;;;;;;28.45;17.80;99249.59;5037745;28;20062;-76
2023/03/19 10:21:27;;;;;;;;;;;;;;;28.35;17.68;99242.06;5054537;28;20405;-76
2023/03/19 10:23:56;;;;;;;;;;;;;;;28.20;17.83;99230.88;5054589;28;19928;-76
2023/03/19 10:26:25;;;;;;;;;;;;;;;28.13;18.08;99237.09;5037519;28;19916;-78
2023/03/19 10:28:55;;;;;;;;;;;;;;;28.23;18.11;99225.03;5054046;28;20328;-77
2023/03/19 10:31:39;;;;;;;;;;;;;;;28.25;18.14;99231.84;5054203;28;19985;-77
2023/03/19 10:34:22;;;;;;;;;;;;;;;28.23;17.68;99217.81;5037784;28;19924;-77
2023/03/19 10:36:47;;;;;;;;;;;;;;;28.09;18.27;99216.31;5053731;28;19924;-77
2023/03/19 10:39:14;;;;;;;;;;;;;;;27.82;17.73;99210.28;5037474;28;19921;-76
2023/03/19 10:41:58;;;;;;;;;;;;;;;27.42;18.54;99206.00;5055250;28;19920;-76
2023/03/19 10:44:28;;;;;;;;;;;;;;;27.00;19.00;99197.56;5055301;28;19924;-75
2023/03/19 10:46:55;;;;;;;;;;;;;;;26.79;19.10;99193.28;5053859;28;19921;-76
2023/03/19 10:49:21;;;;;;;;;;;;;;;26.90;19.63;99188.09;5036948;28;19924;-75
2023/03/19 10:51:46;;;;;;;;;;;;;;;26.67;19.45;99179.75;5053289;28;19917;-76
2023/03/19 10:54:17;;;;;;;;;;;;;;;26.43;19.92;99184.72;5036312;28;20308;-76
2023/03/19 10:56:44;;;;;;;;;;;;;;;26.16;19.97;99178.59;5053607;28;19923;-76
2023/03/19 10:59:20;;;;;;;;;;;;;;;26.18;19.77;99174.66;5037627;28;19920;-76
2023/03/19 11:01:45;;;;;;;;;;;;;;;26.04;20.12;99177.56;5037144;28;20376;-76
2023/03/19 11:04:11;;;;;;;;;;;;;;;25.99;19.88;99170.16;5036982;28;19917;-76
2023/03/19 11:06:36;;;;;;;;;;;;;;;25.78;20.47;99163.97;5037034;28;20400;-76
2023/03/19 11:09:12;;;;;;;;;;;;;;;25.66;20.39;99152.25;5054885;28;19917;-76
2023/03/19 11:11:44;;;;;;;;;;;;;;;25.66;20.63;99157.59;5053849;28;20008;-77
2023/03/19 11:14:14;;;;;;;;;;;;;;;25.52;20.56;99155.94;5036729;28;20296;-77
2023/03/19 11:16:58;;;;;;;;;;;;;;;25.36;20.99;99160.63;5036822;28;19950;-77
2023/03/19 11:19:25;;;;;;;;;;;;;;;25.09;20.70;99154.38;5053287;28;20372;-75
2023/03/19 11:22:08;;;;;;;;;;;;;;;25.05;21.02;99142.47;5054953;28;20020;-76
2023/03/19 11:24:38;;;;;;;;;;;;;;;24.90;21.01;99145.28;5054503;28;19943;-78
2023/03/19 11:27:03;;;;;;;;;;;;;;;24.76;21.17;99130.25;5036651;28;19916;-78
2023/03/19 11:29:29;;;;;;;;;;;;;;;24.25;21.59;99144.75;5036508;28;20277;-76
2023/03/19 11:32:13;;;;;;;;;;;;;;;24.22;21.87;99135.28;5052644;28;20371;-76
2023/03/19 11:35:04;;;;;;;;;;;;;;;24.01;21.88;99128.19;5054338;28;19990;-77
2023/03/19 11:37:42;;;;;;;;;;;;;;;23.76;22.06;99138.41;5052904;28;19925;-77
2023/03/19 11:40:10;;;;;;;;;;;;;;;23.64;22.60;99133.63;5052726;28;20012;-77
2023/03/19 11:42:44;;;;;;;;;;;;;;;23.39;22.61;99127.84;5052615;28;19967;-79
2023/03/19 11:45:09;;;;;;;;;;;;;;;23.37;22.58;99113.06;5053038;28;19917;-78
2023/03/19 11:47:35;;;;;;;;;;;;;;;23.24;22.54;99117.25;5052681;28;20347;-79
2023/03/19 11:50:17;;;;;;;;;;;;;;;22.58;23.22;99110.16;5052772;28;19924;-77
2023/03/19 11:53:01;;;;;;;;;;;;;;;22.30;23.64;99119.81;5052665;28;20015;-80
2023/03/19 11:55:34;;;;;;;;;;;;;;;22.20;23.85;99110.25;5053650;28;19917;-78
2023/03/19 11:58:18;;;;;;;;;;;;;;;22.17;23.61;99104.44;5035880;28;19939;-78
2023/03/19 12:00:44;;;;;;;;;;;;;;;22.01;24.20;99105.44;5054010;28;19921;-77
2023/03/19 12:03:09;;;;;;;;;;;;;;;21.92;23.71;99099.41;5051736;28;20362;-78
2023/03/19 12:05:40;;;;;;;;;;;;;;;21.76;24.64;99107.50;5052179;28;20392;-78
2023/03/19 12:08:06;;;;;;;;;;;;;;;21.88;24.47;99097.28;5052634;28;19939;-77
2023/03/19 12:10:38;;;;;;;;;;;;;;;21.90;24.54;99096.09;5052181;28;20400;-80
2023/03/19 12:13:09;;;;;;;;;;;;;;;21.74;24.37;99090.94;5035447;28;19924;-78
2023/03/19 12:15:41;;;;;;;;;;;;;;;21.61;24.71;99107.50;5052056;28;20396;-77
2023/03/19 12:18:19;;;;;;;;;;;;;;;21.44;24.85;99094.34;5035617;28;19925;-78
2023/03/19 12:20:59;;;;;;;;;;;;;;;21.41;25.18;99088.53;5051668;28;20400;-78
2023/03/19 12:23:28;;;;;;;;;;;;;;;21.21;25.13;99082.91;5051869;28;19974;-78
2023/03/19 12:26:11;;;;;;;;;;;;;;;21.12;25.75;99090.06;5053127;28;19924;-75
2023/03/19 12:28:55;;;;;;;;;;;;;;;20.97;26.00;99084.72;5053497;28;19917;-77
2023/03/19 12:31:24;;;;;;;;;;;;;;;21.05;26.13;99089.16;5052876;28;19925;-77
2023/03/19 12:34:08;;;;;;;;;;;;;;;21.10;26.13;99092.91;5051879;28;19923;-75
2023/03/19 12:36:36;;;;;;;;;;;;;;;20.98;26.13;99088.19;5051535;28;20102;-78
2023/03/19 12:39:01;;;;;;;;;;;;;;;20.85;26.66;99078.97;5043637;28;19923;-75
2023/03/19 12:41:31;;;;;;;;;;;;;;;20.87;26.94;99084.91;5060120;28;20007;-84
2023/03/19 12:44:05;;;;;;;;;;;;;;;20.57;28.21;99076.78;5052296;28;19963;-82
2023/03/19 12:46:32;;;;;;;;;;;;;;;20.41;30.30;99080.34;5035221;28;20292;-82